createdAt,value
2018-02-07T00:01:37.350Z,8.10
2018-02-07T00:04:05.564Z,8.10
2018-02-07T00:06:33.017Z,8.10
2018-02-07T00:09:00.469Z,8.10
2018-02-07T00:11:27.925Z,8.10
2018-02-07T00:13:55.373Z,8.10
2018-02-07T00:16:22.840Z,8.00
2018-02-07T00:18:50.302Z,8.00
2018-02-07T00:21:17.756Z,8.00
2018-02-07T00:23:45.212Z,8.00
2018-02-07T00:26:12.672Z,8.00
2018-02-07T00:28:40.109Z,7.90
2018-02-07T00:31:07.553Z,7.90
2018-02-07T00:33:35.777Z,7.90
2018-02-07T00:36:03.237Z,7.90
2018-02-07T00:38:30.723Z,7.90
2018-02-07T00:40:58.191Z,7.80
2018-02-07T00:43:26.413Z,7.90
2018-02-07T00:45:53.881Z,7.90
2018-02-07T00:48:21.333Z,7.90
2018-02-07T00:50:48.785Z,8.00
2018-02-07T00:53:16.241Z,7.90
2018-02-07T00:55:43.696Z,7.80
2018-02-07T00:58:11.156Z,7.80
2018-02-07T01:00:38.606Z,7.80
2018-02-07T01:03:06.074Z,7.80
2018-02-07T01:05:33.529Z,7.70
2018-02-07T01:08:00.989Z,7.70
2018-02-07T01:10:28.434Z,7.70
2018-02-07T01:12:55.896Z,7.70
2018-02-07T01:15:23.345Z,7.70
2018-02-07T01:17:50.806Z,7.70
2018-02-07T01:20:18.875Z,7.60
2018-02-07T01:22:46.406Z,7.60
2018-02-07T01:25:14.630Z,7.60
2018-02-07T01:27:42.080Z,7.60
2018-02-07T01:30:09.528Z,7.70
2018-02-07T01:32:36.964Z,7.70
2018-02-07T01:35:04.424Z,7.60
2018-02-07T01:37:31.876Z,7.60
2018-02-07T01:39:59.338Z,7.60
2018-02-07T01:42:27.552Z,7.50
2018-02-07T01:44:55.011Z,7.50
2018-02-07T01:47:22.461Z,7.50
2018-02-07T01:49:49.917Z,7.50
2018-02-07T01:52:17.369Z,7.50
2018-02-07T01:54:44.837Z,7.40
2018-02-07T01:57:12.298Z,7.40
2018-02-07T01:59:39.757Z,7.40
2018-02-07T02:02:07.201Z,7.40
2018-02-07T02:04:34.651Z,7.30
2018-02-07T02:07:02.097Z,7.30
2018-02-07T02:09:29.553Z,7.30
2018-02-07T02:11:56.999Z,7.20
2018-02-07T02:14:24.473Z,7.20
2018-02-07T02:16:51.914Z,7.20
2018-02-07T02:19:19.382Z,7.20
2018-02-07T02:21:46.859Z,7.20
2018-02-07T02:24:14.310Z,7.20
2018-02-07T02:26:41.749Z,7.20
2018-02-07T02:29:09.215Z,7.20
2018-02-07T02:31:36.662Z,7.10
2018-02-07T02:34:04.121Z,7.10
2018-02-07T02:36:40.176Z,7.10
2018-02-07T02:39:07.626Z,7.10
2018-02-07T02:41:35.094Z,7.10
2018-02-07T02:44:02.544Z,7.00
2018-02-07T02:46:29.997Z,7.00
2018-02-07T02:48:58.202Z,7.00
2018-02-07T02:51:25.653Z,7.00
2018-02-07T02:53:53.088Z,6.90
2018-02-07T02:56:20.532Z,6.90
2018-02-07T02:58:48.750Z,6.90
2018-02-07T03:01:16.210Z,6.90
2018-02-07T03:03:43.657Z,6.90
2018-02-07T03:06:11.870Z,6.90
2018-02-07T03:08:39.320Z,6.80
2018-02-07T03:11:06.787Z,6.90
2018-02-07T03:13:34.234Z,6.90
2018-02-07T03:16:01.679Z,6.80
2018-02-07T03:18:29.125Z,6.80
2018-02-07T03:20:56.571Z,6.80
2018-02-07T03:23:24.005Z,6.80
2018-02-07T03:25:51.461Z,6.80
2018-02-07T03:28:18.905Z,6.80
2018-02-07T03:30:47.152Z,6.80
2018-02-07T03:33:15.365Z,6.70
2018-02-07T03:35:43.569Z,6.70
2018-02-07T03:38:11.030Z,6.70
2018-02-07T03:40:38.479Z,6.70
2018-02-07T03:43:05.932Z,6.70
2018-02-07T03:45:33.378Z,6.70
2018-02-07T03:48:00.864Z,6.70
2018-02-07T03:50:28.302Z,6.70
2018-02-07T03:52:55.758Z,6.70
2018-02-07T03:55:23.218Z,6.70
2018-02-07T03:57:50.668Z,6.60
2018-02-07T04:00:18.117Z,6.60
2018-02-07T04:02:45.577Z,6.60
2018-02-07T04:05:13.033Z,6.60
2018-02-07T04:07:41.263Z,6.60
2018-02-07T04:10:08.705Z,6.60
2018-02-07T04:12:36.155Z,6.60
2018-02-07T04:15:03.602Z,6.50
2018-02-07T04:17:31.063Z,6.50
2018-02-07T04:19:58.510Z,6.50
2018-02-07T04:22:25.953Z,6.50
2018-02-07T04:24:54.165Z,6.50
2018-02-07T04:27:21.609Z,6.50
2018-02-07T04:29:49.054Z,6.50
2018-02-07T04:32:16.497Z,6.50
2018-02-07T04:34:43.953Z,6.50
2018-02-07T04:37:11.410Z,6.40
2018-02-07T04:39:38.854Z,6.40
2018-02-07T04:42:07.072Z,6.40
2018-02-07T04:44:34.523Z,6.30
2018-02-07T04:47:01.971Z,6.40
2018-02-07T04:49:29.416Z,6.40
2018-02-07T04:51:56.858Z,6.40
2018-02-07T04:54:24.313Z,6.30
2018-02-07T04:56:52.529Z,6.30
2018-02-07T04:59:19.985Z,6.30
2018-02-07T05:01:47.429Z,6.30
2018-02-07T05:04:14.897Z,6.30
2018-02-07T05:06:43.114Z,6.30
2018-02-07T05:09:10.570Z,6.30
2018-02-07T05:11:38.024Z,6.30
2018-02-07T05:14:05.481Z,6.20
2018-02-07T05:16:32.935Z,6.30
2018-02-07T05:19:00.399Z,6.30
2018-02-07T05:21:27.829Z,6.30
2018-02-07T05:23:55.276Z,6.20
2018-02-07T05:26:22.734Z,6.30
2018-02-07T05:28:50.191Z,6.20
2018-02-07T05:31:17.628Z,6.20
2018-02-07T05:33:45.081Z,6.10
2018-02-07T05:36:13.306Z,6.20
2018-02-07T05:38:40.750Z,6.10
2018-02-07T05:41:08.197Z,6.20
2018-02-07T05:43:35.647Z,6.10
2018-02-07T05:46:03.095Z,6.10
2018-02-07T05:48:30.552Z,6.10
2018-02-07T05:50:57.997Z,6.10
2018-02-07T05:53:25.461Z,6.10
2018-02-07T05:55:52.909Z,6.00
2018-02-07T05:58:20.365Z,6.00
2018-02-07T06:00:48.482Z,6.10
2018-02-07T06:03:15.920Z,6.10
2018-02-07T06:05:43.373Z,6.10
2018-02-07T06:08:10.821Z,6.00
2018-02-07T06:10:38.281Z,6.00
2018-02-07T06:13:05.721Z,6.00
2018-02-07T06:15:33.961Z,6.00
2018-02-07T06:18:02.196Z,6.00
2018-02-07T06:20:29.654Z,6.00
2018-02-07T06:22:57.098Z,5.90
2018-02-07T06:25:24.568Z,6.00
2018-02-07T06:27:52.016Z,6.00
2018-02-07T06:30:19.466Z,6.00
2018-02-07T06:32:46.919Z,5.90
2018-02-07T06:35:14.390Z,5.90
2018-02-07T06:37:41.832Z,5.90
2018-02-07T06:40:10.041Z,5.90
2018-02-07T06:42:37.484Z,5.90
2018-02-07T06:45:04.931Z,5.90
2018-02-07T06:47:32.368Z,5.90
2018-02-07T06:50:00.592Z,5.80
2018-02-07T06:52:28.038Z,5.80
2018-02-07T06:54:55.492Z,5.80
2018-02-07T06:57:22.950Z,5.80
2018-02-07T06:59:50.398Z,5.80
2018-02-07T07:02:17.856Z,5.80
2018-02-07T07:04:45.312Z,5.80
2018-02-07T07:07:12.762Z,5.80
2018-02-07T07:09:40.237Z,5.80
2018-02-07T07:12:07.689Z,5.80
2018-02-07T07:14:35.147Z,5.80
2018-02-07T07:17:02.604Z,5.80
2018-02-07T07:19:30.077Z,5.80
2018-02-07T07:21:58.310Z,5.80
2018-02-07T07:24:26.512Z,5.90
2018-02-07T07:26:53.972Z,5.90
2018-02-07T07:29:21.494Z,5.90
2018-02-07T07:31:49.704Z,5.90
2018-02-07T07:34:17.148Z,5.90
2018-02-07T07:36:44.607Z,5.90
2018-02-07T07:39:12.037Z,5.90
2018-02-07T07:41:40.261Z,5.90
2018-02-07T07:44:07.750Z,5.90
2018-02-07T07:46:35.161Z,6.00
2018-02-07T07:49:02.613Z,6.00
2018-02-07T07:51:30.070Z,6.00
2018-02-07T07:53:57.540Z,6.00
2018-02-07T07:56:25.000Z,6.10
2018-02-07T07:58:52.452Z,6.10
2018-02-07T08:01:19.966Z,6.20
2018-02-07T08:03:47.475Z,6.20
2018-02-07T08:06:14.984Z,6.30
2018-02-07T08:08:43.272Z,6.30
2018-02-07T08:11:10.781Z,6.30
2018-02-07T08:13:38.281Z,6.40
2018-02-07T08:16:06.538Z,6.50
2018-02-07T08:18:34.027Z,6.50
2018-02-07T08:21:01.491Z,6.60
2018-02-07T08:23:29.705Z,6.80
2018-02-07T08:25:57.210Z,6.80
2018-02-07T08:28:25.429Z,7.00
2018-02-07T08:30:52.873Z,6.90
2018-02-07T08:33:20.326Z,7.20
2018-02-07T08:35:47.762Z,7.30
2018-02-07T08:38:15.999Z,7.60
2018-02-07T08:40:43.461Z,7.60
2018-02-07T08:43:10.917Z,7.80
2018-02-07T08:45:38.371Z,8.10
2018-02-07T08:48:05.824Z,8.30
2018-02-07T08:50:33.293Z,8.50
2018-02-07T08:53:00.742Z,8.70
2018-02-07T08:55:28.202Z,9.00
2018-02-07T08:57:55.656Z,9.20
2018-02-07T09:00:23.093Z,9.50
2018-02-07T09:02:50.625Z,9.80
2018-02-07T09:05:18.069Z,10.10
2018-02-07T09:07:45.549Z,10.40
2018-02-07T09:10:12.998Z,10.70
2018-02-07T09:12:40.457Z,11.00
2018-02-07T09:15:07.913Z,11.30
2018-02-07T09:17:35.401Z,11.60
2018-02-07T09:20:02.847Z,11.90
2018-02-07T09:22:30.301Z,12.20
2018-02-07T09:24:57.757Z,12.50
2018-02-07T09:27:25.228Z,12.80
2018-02-07T09:29:52.685Z,13.10
2018-02-07T09:32:20.133Z,13.40
2018-02-07T09:34:47.597Z,13.70
2018-02-07T09:37:15.046Z,14.00
2018-02-07T09:39:42.506Z,14.30
2018-02-07T09:42:09.953Z,14.60
2018-02-07T09:44:37.408Z,14.90
2018-02-07T09:47:04.861Z,15.10
2018-02-07T09:49:32.318Z,15.40
2018-02-07T09:51:59.769Z,15.70
2018-02-07T09:54:27.228Z,16.00
2018-02-07T09:56:54.686Z,16.10
2018-02-07T09:59:22.125Z,16.40
2018-02-07T10:01:50.337Z,16.80
2018-02-07T10:04:17.797Z,16.80
2018-02-07T10:06:45.257Z,17.10
2018-02-07T10:09:12.713Z,17.30
2018-02-07T10:11:40.933Z,17.60
2018-02-07T10:14:08.393Z,17.60
2018-02-07T10:16:36.611Z,18.10
2018-02-07T10:19:04.069Z,18.10
2018-02-07T10:21:31.525Z,18.30
2018-02-07T10:23:58.980Z,18.50
2018-02-07T10:26:26.445Z,18.70
2018-02-07T10:28:53.896Z,18.80
2018-02-07T10:31:21.364Z,19.00
2018-02-07T10:33:48.809Z,19.20
2018-02-07T10:36:16.268Z,19.40
2018-02-07T10:38:43.724Z,19.60
2018-02-07T10:41:11.178Z,19.80
2018-02-07T10:43:38.640Z,20.00
2018-02-07T10:46:06.096Z,20.20
2018-02-07T10:48:33.566Z,20.40
2018-02-07T10:51:01.054Z,20.60
2018-02-07T10:53:28.505Z,20.70
2018-02-07T10:55:55.965Z,20.90
2018-02-07T10:58:23.435Z,21.20
2018-02-07T11:00:50.877Z,21.40
2018-02-07T11:03:18.333Z,21.60
2018-02-07T11:05:45.789Z,21.90
2018-02-07T11:08:13.249Z,22.20
2018-02-07T11:10:40.705Z,22.40
2018-02-07T11:13:08.173Z,22.60
2018-02-07T11:15:35.640Z,22.90
2018-02-07T11:18:03.077Z,23.20
2018-02-07T11:20:30.533Z,23.70
2018-02-07T11:22:57.988Z,24.30
2018-02-07T11:25:25.445Z,24.90
2018-02-07T11:27:52.913Z,25.70
2018-02-07T11:30:20.360Z,26.90
2018-02-07T11:32:47.821Z,28.30
2018-02-07T11:35:15.297Z,30.00
2018-02-07T11:37:42.760Z,31.20
2018-02-07T11:40:10.229Z,31.80
2018-02-07T11:42:38.450Z,32.70
2018-02-07T11:45:05.901Z,32.60
2018-02-07T11:47:33.428Z,33.10
2018-02-07T11:50:00.841Z,33.50
2018-02-07T11:52:28.297Z,33.80
2018-02-07T11:54:55.754Z,34.10
2018-02-07T11:57:23.209Z,34.40
2018-02-07T11:59:50.666Z,34.80
2018-02-07T12:02:18.124Z,34.90
2018-02-07T12:04:45.581Z,35.10
2018-02-07T12:07:13.038Z,35.10
2018-02-07T12:09:40.483Z,35.20
2018-02-07T12:12:07.958Z,35.60
2018-02-07T12:14:35.410Z,35.90
2018-02-07T12:17:02.874Z,36.10
2018-02-07T12:19:30.338Z,36.20
2018-02-07T12:21:57.840Z,36.70
2018-02-07T12:24:25.263Z,36.80
2018-02-07T12:26:52.723Z,37.20
2018-02-07T12:29:20.173Z,37.30
2018-02-07T12:31:47.633Z,37.20
2018-02-07T12:34:15.856Z,37.90
2018-02-07T12:36:43.305Z,37.90
2018-02-07T12:39:10.759Z,37.90
2018-02-07T12:41:38.216Z,37.80
2018-02-07T12:44:05.664Z,38.00
2018-02-07T12:46:33.118Z,38.30
2018-02-07T12:49:01.343Z,37.60
2018-02-07T12:51:28.809Z,37.60
2018-02-07T12:53:56.300Z,37.40
2018-02-07T12:56:23.765Z,37.10
2018-02-07T12:58:51.993Z,37.70
2018-02-07T13:01:20.202Z,38.30
2018-02-07T13:03:48.416Z,39.00
2018-02-07T13:06:15.873Z,38.90
2018-02-07T13:08:43.336Z,39.80
2018-02-07T13:11:10.779Z,40.70
2018-02-07T13:13:38.234Z,41.00
2018-02-07T13:16:05.688Z,41.40
2018-02-07T13:18:33.182Z,41.90
2018-02-07T13:21:00.624Z,42.40
2018-02-07T13:23:28.077Z,42.60
2018-02-07T13:25:56.297Z,43.00
2018-02-07T13:28:23.757Z,43.00
2018-02-07T13:30:52.729Z,42.80
2018-02-07T13:33:20.182Z,42.80
2018-02-07T13:35:47.636Z,43.10
2018-02-07T13:38:15.082Z,42.90
2018-02-07T13:40:42.530Z,42.90
2018-02-07T13:43:09.989Z,43.10
2018-02-07T13:45:37.429Z,43.10
2018-02-07T13:48:04.885Z,42.90
2018-02-07T13:50:32.332Z,42.80
2018-02-07T13:52:59.784Z,42.90
2018-02-07T13:55:27.233Z,42.60
2018-02-07T13:57:55.445Z,42.90
2018-02-07T14:00:22.905Z,42.90
2018-02-07T14:02:50.361Z,42.90
2018-02-07T14:05:17.815Z,42.50
2018-02-07T14:07:45.277Z,42.70
2018-02-07T14:10:12.729Z,42.60
2018-02-07T14:12:40.177Z,42.20
2018-02-07T14:15:07.653Z,42.10
2018-02-07T14:17:35.101Z,41.50
2018-02-07T14:20:02.553Z,41.20
2018-02-07T14:22:30.005Z,40.60
2018-02-07T14:24:57.492Z,39.20
2018-02-07T14:27:24.957Z,36.40
2018-02-07T14:29:52.412Z,34.50
2018-02-07T14:32:19.878Z,33.00
2018-02-07T14:34:47.341Z,31.60
2018-02-07T14:37:14.788Z,29.90
2018-02-07T14:39:42.261Z,28.60
2018-02-07T14:42:09.725Z,27.90
2018-02-07T14:44:37.181Z,27.30
2018-02-07T14:47:04.662Z,27.30
2018-02-07T14:49:32.122Z,27.30
2018-02-07T14:51:59.580Z,27.50
2018-02-07T14:54:27.801Z,27.60
2018-02-07T14:56:55.260Z,27.60
2018-02-07T14:59:22.720Z,27.10
2018-02-07T15:01:50.189Z,26.60
2018-02-07T15:04:17.657Z,26.00
2018-02-07T15:06:45.129Z,25.50
2018-02-07T15:09:13.369Z,24.30
2018-02-07T15:11:40.839Z,24.30
2018-02-07T15:14:08.297Z,24.10
2018-02-07T15:16:35.761Z,24.40
2018-02-07T15:19:03.211Z,25.20
2018-02-07T15:21:30.675Z,26.20
2018-02-07T15:23:58.141Z,26.50
2018-02-07T15:28:59.472Z,26.30
2018-02-07T15:31:26.937Z,26.40
2018-02-07T15:33:54.389Z,26.50
2018-02-07T15:36:21.848Z,26.30
2018-02-07T15:38:49.306Z,25.80
2018-02-07T15:41:16.762Z,25.00
2018-02-07T15:43:44.221Z,24.10
2018-02-07T15:46:12.450Z,22.80
2018-02-07T15:48:40.673Z,22.10
2018-02-07T15:51:08.147Z,22.00
2018-02-07T15:53:35.605Z,21.40
2018-02-07T15:56:03.070Z,20.90
2018-02-07T15:58:30.537Z,20.40
2018-02-07T16:00:58.775Z,19.60
2018-02-07T16:03:26.238Z,19.60
2018-02-07T16:05:53.709Z,19.40
2018-02-07T16:08:21.171Z,19.10
2018-02-07T16:10:48.621Z,18.90
2018-02-07T16:13:16.118Z,18.70
2018-02-07T16:15:44.337Z,18.30
2018-02-07T16:18:11.797Z,18.30
2018-02-07T16:20:39.253Z,18.10
2018-02-07T16:23:06.721Z,17.90
2018-02-07T16:25:34.209Z,17.80
2018-02-07T16:28:02.454Z,17.50
2018-02-07T16:30:29.897Z,17.50
2018-02-07T16:32:57.353Z,17.30
2018-02-07T16:35:24.813Z,17.10
2018-02-07T16:37:52.269Z,17.00
2018-02-07T16:40:19.749Z,16.80
2018-02-07T16:42:47.196Z,16.80
2018-02-07T16:45:14.658Z,16.70
2018-02-07T16:47:42.113Z,16.50
2018-02-07T16:50:09.605Z,16.40
2018-02-07T16:52:37.053Z,16.30
2018-02-07T16:55:05.294Z,16.10
2018-02-07T16:57:32.753Z,16.10
2018-02-07T17:00:00.210Z,16.00
2018-02-07T17:02:27.657Z,15.90
2018-02-07T17:04:55.117Z,15.80
2018-02-07T17:07:22.575Z,15.70
2018-02-07T17:09:50.034Z,15.60
2018-02-07T17:12:17.490Z,15.50
2018-02-07T17:14:44.950Z,15.40
2018-02-07T17:17:12.404Z,15.30
2018-02-07T17:19:39.894Z,15.30
2018-02-07T17:22:07.341Z,15.20
2018-02-07T17:24:34.845Z,15.10
2018-02-07T17:27:02.293Z,15.00
2018-02-07T17:29:30.577Z,14.90
2018-02-07T17:31:58.018Z,14.80
2018-02-07T17:34:26.240Z,14.70
2018-02-07T17:36:53.734Z,14.70
2018-02-07T17:39:21.189Z,14.70
2018-02-07T17:41:48.657Z,14.60
2018-02-07T17:44:16.124Z,14.50
2018-02-07T17:46:43.587Z,14.50
2018-02-07T17:49:11.810Z,14.30
2018-02-07T17:51:40.082Z,14.30
2018-02-07T17:54:07.537Z,14.30
2018-02-07T17:56:35.002Z,14.20
2018-02-07T17:59:02.453Z,14.10
2018-02-07T18:01:29.913Z,14.10
2018-02-07T18:03:57.366Z,14.00
2018-02-07T18:06:24.846Z,14.00
2018-02-07T18:08:52.297Z,13.90
2018-02-07T18:11:19.762Z,13.80
2018-02-07T18:13:47.220Z,13.80
2018-02-07T18:16:14.691Z,13.70
2018-02-07T18:18:42.163Z,13.70
2018-02-07T18:21:10.379Z,13.60
2018-02-07T18:23:37.858Z,13.50
2018-02-07T18:26:05.317Z,13.50
2018-02-07T18:28:32.781Z,13.50
2018-02-07T18:31:00.265Z,13.40
2018-02-07T18:33:28.513Z,13.30
2018-02-07T18:35:55.993Z,13.20
2018-02-07T18:38:23.459Z,13.20
2018-02-07T18:40:51.675Z,13.10
2018-02-07T18:43:19.136Z,13.10
2018-02-07T18:45:46.594Z,13.10
2018-02-07T18:48:14.821Z,12.90
2018-02-07T18:50:42.344Z,12.90
2018-02-07T18:53:09.831Z,12.90
2018-02-07T18:55:37.284Z,12.90
2018-02-07T18:58:05.525Z,12.80
2018-02-07T19:00:32.981Z,12.80
2018-02-07T19:03:00.453Z,12.70
2018-02-07T19:05:27.908Z,12.70
2018-02-07T19:07:56.132Z,12.60
2018-02-07T19:10:24.357Z,12.30
2018-02-07T19:12:51.824Z,12.30
2018-02-07T19:15:19.297Z,11.40
2018-02-07T19:17:46.772Z,11.30
2018-02-07T19:20:15.097Z,8.80
2018-02-07T19:22:42.549Z,8.70
2018-02-07T19:25:10.008Z,7.10
2018-02-07T19:27:37.470Z,6.40
2018-02-07T19:30:04.925Z,5.70
2018-02-07T19:32:32.386Z,5.50
2018-02-07T19:34:59.849Z,5.40
2018-02-07T19:37:27.325Z,5.00
2018-02-07T19:39:54.781Z,4.60
2018-02-07T19:42:22.238Z,4.70
2018-02-07T19:44:49.692Z,4.50
2018-02-07T19:47:17.150Z,4.40
2018-02-07T19:49:44.606Z,4.40
2018-02-07T19:52:12.054Z,4.20
2018-02-07T19:54:39.510Z,4.10
2018-02-07T19:57:07.052Z,3.90
2018-02-07T19:59:34.513Z,4.00
2018-02-07T20:02:01.975Z,4.00
2018-02-07T20:04:29.434Z,4.20
2018-02-07T20:06:56.881Z,4.00
2018-02-07T20:09:24.337Z,4.00
2018-02-07T20:11:51.847Z,3.90
2018-02-07T20:14:20.077Z,3.50
2018-02-07T20:16:47.542Z,3.50
2018-02-07T20:19:15.001Z,3.60
2018-02-07T20:21:42.461Z,3.70
2018-02-07T20:24:10.686Z,3.50
2018-02-07T20:26:38.130Z,3.50
2018-02-07T20:29:05.590Z,3.40
2018-02-07T20:31:33.029Z,3.20
2018-02-07T20:34:01.998Z,2.90
2018-02-07T20:36:29.462Z,2.90
2018-02-07T20:38:56.925Z,2.80
2018-02-07T20:41:24.393Z,3.00
2018-02-07T20:43:51.841Z,3.10
2018-02-07T20:46:19.313Z,3.00
2018-02-07T20:48:46.762Z,2.80
2018-02-07T20:51:14.222Z,2.70
2018-02-07T20:53:41.671Z,2.80
2018-02-07T20:56:09.117Z,2.70
2018-02-07T20:58:36.576Z,2.70
2018-02-07T21:01:04.030Z,2.40
2018-02-07T21:03:31.503Z,2.40
2018-02-07T21:05:58.966Z,2.50
2018-02-07T21:08:27.320Z,2.40
2018-02-07T21:10:54.765Z,2.40
2018-02-07T21:13:22.217Z,2.20
2018-02-07T21:15:49.695Z,2.10
2018-02-07T21:18:17.158Z,2.10
2018-02-07T21:20:44.614Z,2.00
2018-02-07T21:23:12.081Z,2.10
2018-02-07T21:25:39.540Z,2.00
2018-02-07T21:28:07.007Z,2.40
2018-02-07T21:30:34.461Z,2.50
2018-02-07T21:33:01.926Z,2.40
2018-02-07T21:35:29.369Z,2.30
2018-02-07T21:37:58.329Z,2.00
2018-02-07T21:40:25.789Z,2.00
2018-02-07T21:42:53.244Z,2.00
2018-02-07T21:45:20.697Z,1.80
2018-02-07T21:47:48.161Z,1.70
2018-02-07T21:50:15.617Z,1.70
2018-02-07T21:52:43.842Z,1.80
2018-02-07T21:55:11.295Z,1.70
2018-02-07T21:57:38.748Z,1.90
2018-02-07T22:00:06.196Z,2.10
2018-02-07T22:02:34.444Z,2.10
2018-02-07T22:05:01.925Z,2.10
2018-02-07T22:07:29.373Z,2.00
2018-02-07T22:09:56.925Z,1.90
2018-02-07T22:12:24.422Z,1.70
2018-02-07T22:14:51.933Z,1.50
2018-02-07T22:17:19.385Z,1.70
2018-02-07T22:19:46.848Z,1.70
2018-02-07T22:22:14.329Z,1.70
2018-02-07T22:24:41.869Z,1.90
2018-02-07T22:27:09.337Z,1.90
2018-02-07T22:29:36.874Z,1.80
2018-02-07T22:32:04.681Z,1.70
2018-02-07T22:34:32.136Z,1.70
2018-02-07T22:36:59.593Z,1.70
2018-02-07T22:39:27.061Z,1.60
2018-02-07T22:41:54.517Z,1.50
2018-02-07T22:44:21.973Z,1.60
2018-02-07T22:46:49.429Z,1.50
2018-02-07T22:49:16.896Z,1.60
2018-02-07T22:51:44.351Z,1.30
2018-02-07T22:54:11.813Z,1.30
2018-02-07T22:56:40.029Z,1.20
2018-02-07T22:59:07.516Z,1.20
2018-02-07T23:01:34.973Z,1.00
2018-02-07T23:04:02.430Z,1.10
2018-02-07T23:06:29.893Z,1.40
2018-02-07T23:08:57.351Z,1.30
2018-02-07T23:11:24.826Z,1.10
2018-02-07T23:13:52.355Z,1.10
2018-02-07T23:16:19.820Z,1.10
2018-02-07T23:18:47.277Z,0.90
2018-02-07T23:21:14.756Z,1.10
2018-02-07T23:23:42.201Z,1.10
2018-02-07T23:26:10.237Z,0.90
2018-02-07T23:28:37.693Z,0.90
2018-02-07T23:31:05.149Z,0.70
2018-02-07T23:33:32.606Z,0.70
2018-02-07T23:36:00.069Z,0.70
2018-02-07T23:38:27.525Z,0.70
2018-02-07T23:40:55.005Z,0.60
2018-02-07T23:43:22.457Z,0.60
2018-02-07T23:45:49.913Z,0.80
2018-02-07T23:48:17.381Z,0.60
2018-02-07T23:50:46.277Z,0.70
2018-02-07T23:53:13.720Z,0.60
2018-02-07T23:55:41.181Z,0.60
2018-02-07T23:58:08.661Z,0.60
